createdAt,value
2023-12-20T00:00:37.340Z,2.00
2023-12-20T00:01:37.363Z,2.20
2023-12-20T00:02:37.280Z,2.00
2023-12-20T00:03:42.122Z,2.00
2023-12-20T00:04:37.340Z,2.60
2023-12-20T00:05:37.249Z,2.30
2023-12-20T00:06:37.416Z,2.20
2023-12-20T00:07:37.432Z,2.40
2023-12-20T00:08:37.398Z,2.40
2023-12-20T00:09:37.312Z,2.20
2023-12-20T00:10:37.189Z,2.50
2023-12-20T00:11:37.193Z,2.90
2023-12-20T00:12:37.280Z,2.80
2023-12-20T00:13:37.167Z,2.30
2023-12-20T00:14:37.252Z,2.70
2023-12-20T00:15:37.262Z,2.70
2023-12-20T00:16:37.231Z,2.80
2023-12-20T00:17:37.202Z,2.10
2023-12-20T00:18:37.298Z,2.70
2023-12-20T00:19:37.310Z,2.70
2023-12-20T00:20:37.297Z,2.50
2023-12-20T00:21:37.165Z,2.50
2023-12-20T00:22:37.119Z,2.30
2023-12-20T00:23:37.140Z,2.30
2023-12-20T00:24:37.179Z,2.20
2023-12-20T00:25:37.054Z,2.50
2023-12-20T00:26:37.016Z,1.80
2023-12-20T00:27:37.029Z,2.40
2023-12-20T00:28:37.006Z,2.40
2023-12-20T00:29:36.983Z,2.10
2023-12-20T00:30:37.041Z,2.70
2023-12-20T00:31:37.031Z,2.40
2023-12-20T00:32:37.042Z,3.00
2023-12-20T00:33:37.157Z,2.40
2023-12-20T00:34:36.970Z,2.10
2023-12-20T00:35:36.945Z,2.40
2023-12-20T00:36:36.992Z,1.90
2023-12-20T00:37:36.899Z,2.30
2023-12-20T00:38:36.883Z,2.20
2023-12-20T00:39:36.899Z,3.00
2023-12-20T00:40:36.864Z,2.00
2023-12-20T00:41:36.852Z,2.40
2023-12-20T00:42:36.869Z,2.50
2023-12-20T00:43:36.835Z,2.30
2023-12-20T00:44:36.825Z,2.00
2023-12-20T00:45:36.836Z,2.40
2023-12-20T00:46:36.800Z,2.20
2023-12-20T00:47:36.816Z,2.80
2023-12-20T00:48:36.803Z,2.40
2023-12-20T00:49:36.807Z,2.90
2023-12-20T00:50:36.756Z,2.60
2023-12-20T00:51:36.783Z,2.70
2023-12-20T00:52:36.791Z,2.30
2023-12-20T00:53:36.732Z,2.60
2023-12-20T00:54:36.749Z,2.60
2023-12-20T00:55:36.697Z,2.70
2023-12-20T00:56:36.696Z,2.60
2023-12-20T00:57:36.687Z,2.40
2023-12-20T00:58:36.674Z,2.10
2023-12-20T00:59:36.662Z,2.30
2023-12-20T01:00:36.756Z,2.10
2023-12-20T01:01:36.670Z,3.00
2023-12-20T01:02:36.626Z,2.40
2023-12-20T01:03:36.705Z,2.30
2023-12-20T01:04:36.630Z,2.80
2023-12-20T01:05:36.661Z,2.40
2023-12-20T01:06:36.634Z,2.20
2023-12-20T01:07:36.574Z,2.20
2023-12-20T01:08:36.580Z,2.20
2023-12-20T01:09:36.601Z,2.90
2023-12-20T01:10:36.533Z,2.30
2023-12-20T01:11:36.521Z,2.80
2023-12-20T01:12:36.543Z,2.60
2023-12-20T01:13:36.511Z,2.80
2023-12-20T01:14:36.494Z,2.30
2023-12-20T01:15:36.510Z,2.20
2023-12-20T01:16:36.469Z,2.80
2023-12-20T01:17:36.469Z,2.50
2023-12-20T01:18:36.481Z,2.90
2023-12-20T01:19:36.533Z,2.40
2023-12-20T01:20:36.425Z,2.90
2023-12-20T01:21:36.417Z,2.80
2023-12-20T01:22:36.401Z,2.80
2023-12-20T01:23:36.391Z,2.40
2023-12-20T01:24:36.468Z,2.60
2023-12-20T01:25:36.390Z,2.90
2023-12-20T01:26:36.362Z,3.20
2023-12-20T01:27:36.525Z,2.50
2023-12-20T01:28:36.338Z,3.10
2023-12-20T01:29:36.326Z,3.00
2023-12-20T01:30:36.384Z,3.00
2023-12-20T01:31:36.355Z,3.20
2023-12-20T01:32:36.345Z,2.50
2023-12-20T01:33:36.325Z,3.70
2023-12-20T01:34:36.397Z,2.60
2023-12-20T01:35:36.260Z,3.40
2023-12-20T01:36:36.261Z,2.30
2023-12-20T01:37:36.239Z,3.10
2023-12-20T01:38:36.231Z,2.80
2023-12-20T01:39:36.338Z,2.30
2023-12-20T01:40:36.233Z,2.50
2023-12-20T01:41:36.244Z,2.90
2023-12-20T01:42:36.218Z,2.60
2023-12-20T01:43:44.484Z,2.60
2023-12-20T01:44:37.204Z,2.50
2023-12-20T01:45:36.151Z,2.60
2023-12-20T01:46:36.151Z,3.50
2023-12-20T01:47:36.144Z,2.70
2023-12-20T01:48:36.149Z,2.90
2023-12-20T01:49:36.173Z,3.00
2023-12-20T01:50:36.187Z,2.50
2023-12-20T01:51:36.095Z,2.40
2023-12-20T01:52:36.073Z,3.40
2023-12-20T01:53:36.076Z,2.40
2023-12-20T01:54:36.062Z,2.90
2023-12-20T01:55:36.081Z,2.70
2023-12-20T01:56:36.053Z,2.80
2023-12-20T01:57:36.019Z,2.80
2023-12-20T01:58:36.015Z,2.70
2023-12-20T01:59:36.005Z,2.90
2023-12-20T02:00:35.995Z,3.40
2023-12-20T02:01:36.070Z,2.80
2023-12-20T02:02:35.972Z,2.80
2023-12-20T02:03:35.993Z,2.70
2023-12-20T02:04:36.137Z,2.80
2023-12-20T02:05:35.931Z,3.30
2023-12-20T02:06:35.986Z,2.40
2023-12-20T02:07:35.959Z,3.60
2023-12-20T02:08:35.912Z,3.50
2023-12-20T02:09:35.913Z,2.50
2023-12-20T02:10:35.880Z,2.70
2023-12-20T02:11:35.895Z,3.00
2023-12-20T02:12:35.879Z,3.10
2023-12-20T02:13:35.844Z,2.40
2023-12-20T02:14:35.840Z,2.90
2023-12-20T02:15:35.827Z,2.80
2023-12-20T02:16:35.812Z,2.80
2023-12-20T02:17:35.853Z,2.90
2023-12-20T02:18:35.893Z,2.80
2023-12-20T02:19:35.877Z,3.70
2023-12-20T02:20:35.787Z,2.70
2023-12-20T02:21:35.758Z,2.80
2023-12-20T02:22:35.749Z,3.10
2023-12-20T02:23:35.740Z,3.00
2023-12-20T02:24:35.728Z,3.10
2023-12-20T02:25:35.715Z,2.90
2023-12-20T02:26:35.703Z,3.00
2023-12-20T02:27:35.695Z,2.90
2023-12-20T02:28:35.707Z,2.60
2023-12-20T02:29:35.671Z,3.00
2023-12-20T02:30:35.715Z,2.90
2023-12-20T02:31:35.750Z,2.70
2023-12-20T02:32:35.686Z,3.30
2023-12-20T02:33:35.632Z,3.20
2023-12-20T02:34:35.667Z,2.60
2023-12-20T02:35:35.610Z,2.80
2023-12-20T02:36:35.592Z,2.50
2023-12-20T02:37:35.597Z,2.90
2023-12-20T02:38:35.569Z,2.90
2023-12-20T02:39:35.574Z,3.20
2023-12-20T02:40:35.560Z,2.60
2023-12-20T02:41:35.545Z,3.20
2023-12-20T02:42:35.529Z,2.70
2023-12-20T02:43:35.519Z,2.60
2023-12-20T02:44:35.569Z,2.60
2023-12-20T02:45:35.501Z,2.50
2023-12-20T02:46:35.483Z,3.00
2023-12-20T02:47:35.492Z,3.10
2023-12-20T02:48:35.537Z,2.80
2023-12-20T02:49:35.586Z,2.60
2023-12-20T02:50:35.442Z,2.90
2023-12-20T02:51:35.434Z,2.80
2023-12-20T02:52:35.424Z,2.80
2023-12-20T02:53:35.414Z,2.70
2023-12-20T02:54:35.406Z,2.80
2023-12-20T02:55:35.388Z,2.40
2023-12-20T02:56:35.373Z,2.80
2023-12-20T02:57:35.364Z,2.80
2023-12-20T02:58:35.366Z,2.30
2023-12-20T02:59:35.345Z,2.50
2023-12-20T03:00:35.368Z,3.50
2023-12-20T03:01:35.372Z,3.30
2023-12-20T03:02:35.321Z,2.20
2023-12-20T03:03:35.295Z,3.20
2023-12-20T03:04:35.416Z,2.90
2023-12-20T03:05:35.401Z,3.00
2023-12-20T03:06:35.266Z,2.60
2023-12-20T03:07:35.264Z,2.80
2023-12-20T03:08:35.240Z,2.70
2023-12-20T03:09:47.212Z,2.70
2023-12-20T03:10:36.247Z,2.80
2023-12-20T03:11:35.209Z,2.70
2023-12-20T03:12:35.200Z,2.60
2023-12-20T03:13:35.189Z,1.90
2023-12-20T03:14:35.176Z,2.80
2023-12-20T03:15:35.164Z,2.80
2023-12-20T03:16:37.007Z,2.20
2023-12-20T03:17:35.162Z,2.70
2023-12-20T03:18:35.130Z,2.80
2023-12-20T03:19:35.141Z,2.50
2023-12-20T03:20:35.203Z,2.60
2023-12-20T03:21:35.128Z,2.20
2023-12-20T03:22:35.088Z,2.80
2023-12-20T03:23:35.081Z,2.50
2023-12-20T03:24:35.065Z,2.40
2023-12-20T03:25:35.139Z,3.20
2023-12-20T03:26:35.042Z,2.80
2023-12-20T03:27:35.033Z,2.40
2023-12-20T03:28:35.080Z,2.30
2023-12-20T03:29:35.010Z,3.00
2023-12-20T03:30:35.025Z,2.70
2023-12-20T03:31:35.035Z,2.70
2023-12-20T03:32:35.018Z,2.50
2023-12-20T03:33:34.994Z,3.20
2023-12-20T03:34:35.118Z,2.90
2023-12-20T03:35:34.945Z,2.50
2023-12-20T03:36:34.929Z,3.00
2023-12-20T03:37:34.929Z,2.90
2023-12-20T03:38:34.937Z,2.80
2023-12-20T03:39:34.902Z,2.80
2023-12-20T03:40:34.896Z,3.10
2023-12-20T03:41:34.889Z,2.80
2023-12-20T03:42:34.864Z,2.60
2023-12-20T03:43:34.855Z,3.20
2023-12-20T03:44:34.840Z,2.90
2023-12-20T03:45:34.832Z,2.10
2023-12-20T03:46:34.820Z,2.80
2023-12-20T03:47:34.882Z,4.00
2023-12-20T03:48:34.823Z,3.30
2023-12-20T03:49:34.954Z,3.50
2023-12-20T03:50:34.798Z,3.10
2023-12-20T03:51:34.767Z,2.50
2023-12-20T03:52:34.756Z,3.10
2023-12-20T03:53:34.749Z,3.00
2023-12-20T03:54:34.732Z,2.80
2023-12-20T03:55:34.749Z,3.20
2023-12-20T03:56:34.715Z,3.50
2023-12-20T03:57:34.698Z,3.30
2023-12-20T03:58:34.697Z,3.20
2023-12-20T03:59:34.677Z,3.80
2023-12-20T04:00:34.711Z,3.10
2023-12-20T04:01:34.747Z,3.90
2023-12-20T04:02:34.643Z,3.60
2023-12-20T04:03:34.646Z,3.70
2023-12-20T04:04:34.875Z,3.30
2023-12-20T04:05:34.700Z,3.60
2023-12-20T04:06:34.650Z,3.40
2023-12-20T04:07:34.787Z,3.30
2023-12-20T04:08:34.580Z,2.90
2023-12-20T04:09:34.575Z,4.00
2023-12-20T04:10:34.554Z,3.50
2023-12-20T04:11:34.545Z,3.60
2023-12-20T04:12:34.533Z,4.10
2023-12-20T04:13:34.532Z,3.00
2023-12-20T04:14:34.518Z,3.60
2023-12-20T04:15:34.502Z,4.00
2023-12-20T04:16:34.494Z,3.00
2023-12-20T04:17:34.552Z,2.90
2023-12-20T04:18:34.550Z,3.40
2023-12-20T04:19:34.517Z,3.40
2023-12-20T04:20:34.467Z,3.20
2023-12-20T04:21:34.445Z,4.10
2023-12-20T04:22:34.434Z,4.30
2023-12-20T04:23:34.412Z,3.40
2023-12-20T04:24:34.410Z,3.10
2023-12-20T04:25:34.394Z,4.20
2023-12-20T04:26:34.396Z,3.10
2023-12-20T04:27:34.376Z,3.50
2023-12-20T04:28:34.443Z,3.00
2023-12-20T04:29:34.351Z,3.10
2023-12-20T04:30:34.368Z,3.30
2023-12-20T04:31:34.378Z,2.90
2023-12-20T04:32:34.387Z,2.90
2023-12-20T04:33:34.395Z,3.70
2023-12-20T04:34:34.403Z,2.80
2023-12-20T04:35:34.430Z,3.40
2023-12-20T04:36:34.419Z,2.60
2023-12-20T04:37:34.433Z,2.80
2023-12-20T04:38:34.421Z,2.70
2023-12-20T04:39:34.243Z,3.50
2023-12-20T04:40:34.267Z,3.10
2023-12-20T04:41:34.221Z,2.80
2023-12-20T04:42:34.202Z,3.70
2023-12-20T04:43:34.194Z,3.10
2023-12-20T04:44:34.185Z,2.80
2023-12-20T04:45:34.176Z,3.20
2023-12-20T04:46:34.160Z,2.60
2023-12-20T04:47:34.171Z,3.30
2023-12-20T04:48:34.195Z,3.60
2023-12-20T04:49:34.255Z,2.80
2023-12-20T04:50:34.116Z,3.90
2023-12-20T04:51:34.109Z,2.60
2023-12-20T04:52:34.121Z,3.00
2023-12-20T04:53:34.088Z,2.50
2023-12-20T04:54:34.079Z,3.30
2023-12-20T04:55:34.129Z,3.90
2023-12-20T04:56:34.056Z,3.10
2023-12-20T04:57:34.040Z,3.40
2023-12-20T04:58:34.115Z,2.70
2023-12-20T04:59:34.034Z,3.50
2023-12-20T05:00:34.141Z,3.10
2023-12-20T05:01:34.181Z,3.20
2023-12-20T05:02:33.985Z,2.80
2023-12-20T05:03:33.975Z,3.10
2023-12-20T05:04:34.022Z,3.20
2023-12-20T05:05:33.975Z,3.80
2023-12-20T05:06:34.012Z,3.80
2023-12-20T05:07:34.014Z,3.20
2023-12-20T05:08:33.954Z,3.30
2023-12-20T05:09:33.911Z,3.40
2023-12-20T05:10:33.928Z,3.30
2023-12-20T05:11:33.889Z,2.80
2023-12-20T05:12:33.892Z,3.20
2023-12-20T05:13:38.411Z,3.60
2023-12-20T05:14:34.887Z,3.20
2023-12-20T05:15:33.842Z,3.50
2023-12-20T05:16:33.854Z,3.80
2023-12-20T05:17:33.852Z,3.80
2023-12-20T05:18:33.812Z,3.70
2023-12-20T05:19:33.960Z,4.20
2023-12-20T05:20:33.814Z,4.50
2023-12-20T05:21:33.779Z,4.10
2023-12-20T05:22:33.763Z,4.00
2023-12-20T05:23:33.754Z,3.90
2023-12-20T05:24:33.790Z,3.60
2023-12-20T05:25:33.773Z,3.60
2023-12-20T05:26:33.742Z,3.40
2023-12-20T05:27:33.743Z,3.70
2023-12-20T05:28:33.781Z,4.70
2023-12-20T05:29:33.686Z,4.10
2023-12-20T05:30:33.702Z,4.30
2023-12-20T05:31:33.702Z,3.50
2023-12-20T05:32:33.676Z,4.70
2023-12-20T05:33:33.717Z,4.60
2023-12-20T05:34:33.822Z,3.80
2023-12-20T05:35:33.684Z,3.80
2023-12-20T05:36:33.616Z,3.00
2023-12-20T05:37:33.603Z,3.90
2023-12-20T05:38:33.590Z,3.10
2023-12-20T05:39:33.578Z,3.40
2023-12-20T05:40:33.596Z,3.80
2023-12-20T05:41:33.581Z,3.90
2023-12-20T05:42:33.547Z,4.10
2023-12-20T05:43:33.591Z,3.90
2023-12-20T05:44:33.540Z,3.10
2023-12-20T05:45:33.538Z,3.70
2023-12-20T05:46:33.499Z,4.70
2023-12-20T05:47:33.510Z,3.70
2023-12-20T05:48:33.527Z,3.30
2023-12-20T05:49:33.591Z,3.90
2023-12-20T05:50:33.471Z,3.50
2023-12-20T05:51:33.452Z,3.50
2023-12-20T05:52:33.453Z,3.60
2023-12-20T05:53:33.424Z,3.80
2023-12-20T05:54:33.658Z,4.30
2023-12-20T05:55:33.412Z,3.30
2023-12-20T05:56:33.422Z,3.80
2023-12-20T05:57:33.382Z,3.60
2023-12-20T05:58:33.432Z,4.00
2023-12-20T05:59:33.360Z,3.40
2023-12-20T06:00:33.473Z,4.60
2023-12-20T06:01:33.377Z,3.70
2023-12-20T06:02:33.327Z,4.00
2023-12-20T06:03:33.323Z,4.50
2023-12-20T06:04:33.398Z,3.80
2023-12-20T06:05:33.311Z,3.30
2023-12-20T06:06:33.332Z,4.10
2023-12-20T06:07:33.297Z,7.00
2023-12-20T06:08:33.258Z,8.30
2023-12-20T06:09:33.254Z,5.80
2023-12-20T06:10:33.250Z,3.90
2023-12-20T06:11:33.223Z,4.10
2023-12-20T06:12:33.251Z,3.90
2023-12-20T06:13:33.207Z,3.90
2023-12-20T06:14:33.210Z,4.20
2023-12-20T06:15:33.182Z,4.00
2023-12-20T06:16:33.173Z,4.40
2023-12-20T06:17:33.184Z,4.10
2023-12-20T06:18:33.205Z,4.50
2023-12-20T06:19:33.230Z,4.40
2023-12-20T06:20:33.129Z,3.90
2023-12-20T06:21:33.118Z,3.30
2023-12-20T06:22:33.164Z,3.60
2023-12-20T06:23:33.106Z,3.80
2023-12-20T06:24:33.102Z,3.50
2023-12-20T06:25:33.149Z,4.60
2023-12-20T06:26:33.074Z,4.20
2023-12-20T06:27:33.058Z,4.80
2023-12-20T06:28:33.124Z,4.40
2023-12-20T06:29:33.030Z,3.60
2023-12-20T06:30:33.093Z,4.20
2023-12-20T06:31:33.099Z,4.20
2023-12-20T06:32:33.043Z,3.80
2023-12-20T06:33:33.018Z,4.10
2023-12-20T06:34:33.182Z,4.00
2023-12-20T06:35:36.610Z,3.50
2023-12-20T06:36:32.954Z,4.40
2023-12-20T06:37:32.941Z,4.00
2023-12-20T06:38:32.938Z,4.60
2023-12-20T06:39:32.920Z,3.70
2023-12-20T06:41:32.925Z,3.50
2023-12-20T06:42:37.247Z,7.00
2023-12-20T06:43:43.510Z,11.30
2023-12-20T06:44:34.042Z,6.90
2023-12-20T06:45:32.870Z,4.50
2023-12-20T06:46:32.846Z,4.30
2023-12-20T06:47:32.900Z,5.40
2023-12-20T06:48:32.892Z,5.00
2023-12-20T06:49:32.878Z,4.50
2023-12-20T06:50:32.806Z,4.50
2023-12-20T06:51:32.797Z,4.90
2023-12-20T06:52:32.778Z,4.90
2023-12-20T06:53:32.769Z,4.30
2023-12-20T06:54:32.757Z,4.10
2023-12-20T06:55:32.759Z,4.30
2023-12-20T06:56:32.743Z,4.60
2023-12-20T06:57:32.728Z,4.20
2023-12-20T06:58:32.713Z,4.30
2023-12-20T06:59:32.708Z,4.00
2023-12-20T07:00:32.839Z,4.80
2023-12-20T07:01:32.756Z,3.70
2023-12-20T07:02:32.681Z,4.30
2023-12-20T07:03:32.664Z,4.00
2023-12-20T07:04:32.729Z,4.40
2023-12-20T07:05:32.635Z,4.10
2023-12-20T07:06:32.675Z,4.80
2023-12-20T07:07:32.769Z,5.00
2023-12-20T07:08:32.636Z,3.80
2023-12-20T07:09:32.586Z,4.10
2023-12-20T07:10:32.592Z,4.50
2023-12-20T07:11:32.583Z,3.80
2023-12-20T07:12:32.584Z,4.40
2023-12-20T07:13:32.673Z,5.00
2023-12-20T07:14:32.543Z,3.90
2023-12-20T07:15:32.532Z,3.80
2023-12-20T07:16:32.548Z,4.50
2023-12-20T07:17:32.546Z,5.30
2023-12-20T07:18:32.558Z,4.40
2023-12-20T07:19:32.592Z,4.90
2023-12-20T07:20:32.476Z,3.80
2023-12-20T07:21:32.467Z,3.70
2023-12-20T07:22:33.057Z,4.00
2023-12-20T07:23:32.444Z,4.60
2023-12-20T07:24:32.428Z,3.70
2023-12-20T07:25:32.443Z,4.60
2023-12-20T07:26:32.409Z,3.70
2023-12-20T07:27:32.398Z,4.20
2023-12-20T07:28:32.409Z,4.30
2023-12-20T07:29:32.375Z,3.90
2023-12-20T07:30:32.416Z,4.00
2023-12-20T07:31:32.401Z,5.40
2023-12-20T07:32:32.393Z,4.60
2023-12-20T07:33:39.045Z,6.10
2023-12-20T07:34:35.506Z,12.40
2023-12-20T07:35:32.393Z,4.60
2023-12-20T07:36:32.294Z,4.20
2023-12-20T07:37:32.295Z,4.20
2023-12-20T07:38:32.283Z,4.50
2023-12-20T07:39:32.260Z,4.60
2023-12-20T07:40:32.308Z,4.80
2023-12-20T07:41:32.248Z,4.50
2023-12-20T07:42:32.235Z,4.70
2023-12-20T07:43:32.216Z,4.20
2023-12-20T07:44:32.237Z,4.10
2023-12-20T07:45:32.493Z,3.80
2023-12-20T07:46:32.266Z,3.80
2023-12-20T07:47:32.211Z,4.40
2023-12-20T07:48:32.187Z,5.40
2023-12-20T07:49:32.245Z,4.90
2023-12-20T07:50:32.262Z,6.00
2023-12-20T07:51:32.134Z,4.70
2023-12-20T07:52:32.125Z,4.70
2023-12-20T07:53:32.116Z,4.90
2023-12-20T07:54:32.112Z,4.80
2023-12-20T07:55:32.152Z,3.90
2023-12-20T07:56:32.092Z,4.20
2023-12-20T07:57:32.083Z,3.20
2023-12-20T07:58:41.198Z,4.70
2023-12-20T07:59:33.487Z,4.30
2023-12-20T08:00:32.030Z,3.60
2023-12-20T08:01:32.072Z,3.50
2023-12-20T08:02:32.022Z,4.10
2023-12-20T08:03:32.007Z,4.30
2023-12-20T08:04:32.036Z,4.30
2023-12-20T08:05:31.982Z,3.60
2023-12-20T08:06:31.982Z,4.00
2023-12-20T08:07:32.079Z,3.90
2023-12-20T08:08:31.942Z,4.50
2023-12-20T08:09:31.936Z,4.40
2023-12-20T08:10:31.958Z,4.60
2023-12-20T08:11:31.927Z,4.10
2023-12-20T08:12:31.896Z,3.90
2023-12-20T08:13:31.947Z,4.10
2023-12-20T08:14:31.872Z,4.30
2023-12-20T08:15:31.859Z,4.30
2023-12-20T08:16:32.031Z,4.30
2023-12-20T08:17:31.857Z,4.00
2023-12-20T08:18:31.899Z,4.10
2023-12-20T08:19:31.916Z,4.30
2023-12-20T08:20:40.092Z,4.60
2023-12-20T08:21:35.507Z,4.40
2023-12-20T08:22:31.805Z,5.00
2023-12-20T08:23:33.458Z,4.40
2023-12-20T08:24:31.769Z,4.80
2023-12-20T08:25:31.809Z,4.40
2023-12-20T08:26:31.754Z,4.00
2023-12-20T08:27:31.729Z,4.50
2023-12-20T08:28:31.798Z,6.10
2023-12-20T08:29:31.705Z,5.00
2023-12-20T08:30:31.720Z,4.90
2023-12-20T08:31:31.714Z,4.20
2023-12-20T08:32:31.718Z,3.90
2023-12-20T08:33:31.693Z,4.00
2023-12-20T08:34:31.791Z,4.80
2023-12-20T08:35:31.642Z,4.20
2023-12-20T08:36:31.664Z,4.10
2023-12-20T08:37:31.645Z,3.40
2023-12-20T08:38:31.608Z,3.70
2023-12-20T08:39:31.592Z,3.40
2023-12-20T08:40:31.622Z,4.10
2023-12-20T08:41:31.571Z,2.80
2023-12-20T08:42:31.563Z,3.30
2023-12-20T08:43:31.582Z,4.70
2023-12-20T08:44:31.544Z,3.40
2023-12-20T08:45:31.540Z,3.60
2023-12-20T08:46:31.596Z,3.80
2023-12-20T08:47:31.555Z,3.70
2023-12-20T08:48:31.609Z,3.50
2023-12-20T08:49:31.562Z,3.70
2023-12-20T08:50:31.556Z,3.50
2023-12-20T08:51:31.465Z,4.40
2023-12-20T08:52:31.540Z,4.30
2023-12-20T08:53:31.443Z,3.90
2023-12-20T08:54:31.431Z,3.30
2023-12-20T08:55:31.701Z,4.00
2023-12-20T08:56:31.411Z,4.00
2023-12-20T08:57:31.401Z,5.10
2023-12-20T08:58:31.478Z,4.20
2023-12-20T08:59:31.384Z,4.20
2023-12-20T09:00:31.394Z,4.70
2023-12-20T09:01:31.440Z,4.50
2023-12-20T09:02:31.350Z,3.10
2023-12-20T09:03:31.331Z,3.20
2023-12-20T09:04:31.371Z,3.40
2023-12-20T09:05:31.369Z,4.20
2023-12-20T09:06:31.341Z,3.10
2023-12-20T09:07:31.341Z,4.00
2023-12-20T09:08:31.303Z,3.20
2023-12-20T09:09:31.270Z,3.60
2023-12-20T09:10:31.291Z,2.90
2023-12-20T09:11:31.242Z,2.60
2023-12-20T09:12:31.242Z,3.10
2023-12-20T09:13:31.251Z,3.10
2023-12-20T09:14:31.217Z,3.30
2023-12-20T09:15:34.403Z,3.30
2023-12-20T09:16:31.205Z,3.30
2023-12-20T09:17:33.327Z,3.00
2023-12-20T09:18:31.238Z,2.80
2023-12-20T09:19:31.253Z,2.70
2023-12-20T09:20:31.236Z,3.00
2023-12-20T09:21:31.134Z,2.90
2023-12-20T09:22:31.153Z,2.50
2023-12-20T09:23:31.112Z,1.40
2023-12-20T09:24:31.120Z,3.30
2023-12-20T09:25:31.249Z,2.40
2023-12-20T09:26:31.084Z,2.70
2023-12-20T09:27:31.068Z,3.30
2023-12-20T09:28:31.092Z,3.50
2023-12-20T09:29:31.046Z,3.70
2023-12-20T09:30:31.103Z,4.00
2023-12-20T09:31:31.183Z,3.50
2023-12-20T09:32:31.331Z,4.10
2023-12-20T09:33:31.046Z,3.30
2023-12-20T09:34:31.139Z,4.50
2023-12-20T09:35:31.173Z,2.70
2023-12-20T09:36:31.091Z,3.00
2023-12-20T09:37:30.975Z,3.40
2023-12-20T09:38:30.959Z,3.50
2023-12-20T09:39:30.934Z,3.30
2023-12-20T09:40:31.067Z,2.80
2023-12-20T09:41:30.912Z,2.50
2023-12-20T09:42:30.897Z,2.10
2023-12-20T09:43:31.075Z,2.00
2023-12-20T09:44:30.885Z,2.50
2023-12-20T09:45:30.874Z,1.80
2023-12-20T09:46:31.004Z,1.20
2023-12-20T09:47:30.843Z,1.40
2023-12-20T09:48:30.907Z,1.10
2023-12-20T09:49:30.977Z,1.00
2023-12-20T09:50:30.848Z,1.10
2023-12-20T09:51:30.806Z,0.80
2023-12-20T09:52:30.812Z,1.40
2023-12-20T09:53:30.962Z,1.10
2023-12-20T09:54:30.769Z,0.90
2023-12-20T09:55:30.892Z,0.90
2023-12-20T09:56:30.792Z,0.70
2023-12-20T09:57:30.736Z,0.60
2023-12-20T09:58:30.856Z,0.70
2023-12-20T09:59:30.715Z,0.70
2023-12-20T10:00:30.704Z,0.80
2023-12-20T10:01:30.778Z,0.90
2023-12-20T10:02:30.678Z,0.90
2023-12-20T10:03:30.705Z,0.90
2023-12-20T10:04:31.070Z,0.90
2023-12-20T10:05:30.901Z,1.00
2023-12-20T10:06:30.753Z,1.20
2023-12-20T10:07:30.697Z,0.60
2023-12-20T10:08:30.627Z,1.50
2023-12-20T10:09:30.633Z,0.60
2023-12-20T10:10:38.416Z,0.90
2023-12-20T10:11:31.618Z,1.00
2023-12-20T10:12:30.592Z,1.00
2023-12-20T10:13:30.657Z,1.10
2023-12-20T10:14:30.557Z,1.20
2023-12-20T10:15:30.543Z,1.00
2023-12-20T10:16:30.554Z,1.00
2023-12-20T10:17:30.685Z,0.90
2023-12-20T10:18:37.970Z,1.20
2023-12-20T10:19:31.605Z,1.30
2023-12-20T10:20:30.481Z,1.00
2023-12-20T10:21:30.469Z,1.10
2023-12-20T10:22:30.569Z,1.10
2023-12-20T10:23:30.450Z,0.90
2023-12-20T10:24:30.438Z,1.10
2023-12-20T10:25:30.574Z,1.10
2023-12-20T10:26:30.421Z,1.20
2023-12-20T10:27:30.400Z,0.80
2023-12-20T10:28:30.519Z,0.80
2023-12-20T10:29:30.462Z,0.70
2023-12-20T10:30:30.424Z,0.80
2023-12-20T10:31:30.493Z,0.90
2023-12-20T10:32:30.517Z,1.40
2023-12-20T10:33:30.402Z,1.20
2023-12-20T10:34:30.415Z,1.00
2023-12-20T10:35:30.311Z,1.10
2023-12-20T10:36:30.319Z,1.10
2023-12-20T10:37:30.451Z,1.00
2023-12-20T10:38:30.411Z,0.90
2023-12-20T10:39:30.272Z,0.60
2023-12-20T10:40:30.298Z,0.70
2023-12-20T10:41:30.272Z,0.90
2023-12-20T10:42:30.234Z,1.10
2023-12-20T10:43:30.469Z,1.20
2023-12-20T10:44:30.237Z,1.10
2023-12-20T10:45:30.214Z,1.40
2023-12-20T10:46:30.262Z,1.00
2023-12-20T10:47:30.210Z,1.40
2023-12-20T10:48:30.698Z,1.10
2023-12-20T10:49:30.299Z,1.00
2023-12-20T10:50:30.206Z,1.40
2023-12-20T10:51:30.166Z,0.90
2023-12-20T10:52:30.296Z,1.10
2023-12-20T10:53:30.115Z,1.10
2023-12-20T10:54:30.112Z,1.30
2023-12-20T10:55:30.332Z,1.10
2023-12-20T10:56:30.085Z,1.60
2023-12-20T10:57:30.075Z,1.40
2023-12-20T10:58:30.145Z,1.00
2023-12-20T10:59:30.073Z,1.20
2023-12-20T11:00:30.063Z,1.00
2023-12-20T11:01:30.166Z,0.90
2023-12-20T11:02:30.020Z,1.10
2023-12-20T11:03:30.072Z,1.00
2023-12-20T11:04:30.077Z,0.80
2023-12-20T11:05:29.991Z,1.40
2023-12-20T11:06:30.030Z,1.60
2023-12-20T11:07:30.012Z,1.40
2023-12-20T11:08:29.965Z,1.70
2023-12-20T11:09:30.112Z,1.30
2023-12-20T11:10:29.987Z,1.20
2023-12-20T11:11:29.955Z,1.20
2023-12-20T11:12:29.912Z,1.10
2023-12-20T11:13:29.935Z,1.30
2023-12-20T11:14:29.887Z,1.30
2023-12-20T11:15:29.898Z,1.40
2023-12-20T11:16:38.374Z,1.20
2023-12-20T11:17:30.914Z,1.30
2023-12-20T11:18:29.856Z,1.70
2023-12-20T11:19:29.845Z,1.50
2023-12-20T11:20:29.817Z,1.20
2023-12-20T11:21:29.817Z,1.30
2023-12-20T11:22:30.018Z,1.70
2023-12-20T11:23:29.791Z,2.00
2023-12-20T11:24:29.785Z,1.30
2023-12-20T11:25:29.910Z,1.50
2023-12-20T11:26:29.850Z,1.30
2023-12-20T11:27:29.950Z,1.50
2023-12-20T11:28:29.825Z,2.00
2023-12-20T11:29:29.730Z,1.70
2023-12-20T11:30:29.720Z,1.40
2023-12-20T11:31:29.723Z,1.60
2023-12-20T11:32:29.770Z,1.80
2023-12-20T11:33:30.624Z,1.60
2023-12-20T11:34:29.765Z,1.70
2023-12-20T11:35:29.712Z,1.40
2023-12-20T11:36:29.964Z,2.00
2023-12-20T11:37:29.834Z,2.20
2023-12-20T11:38:29.639Z,1.70
2023-12-20T11:39:29.614Z,2.00
2023-12-20T11:40:29.624Z,1.50
2023-12-20T11:41:29.582Z,1.50
2023-12-20T11:42:29.572Z,2.20
2023-12-20T11:43:29.682Z,1.40
2023-12-20T11:44:29.764Z,1.60
2023-12-20T11:45:31.128Z,1.60
2023-12-20T11:47:29.586Z,2.50
2023-12-20T11:49:29.537Z,1.40
2023-12-20T11:50:29.575Z,1.70
2023-12-20T11:51:29.596Z,1.20
2023-12-20T11:52:29.572Z,1.60
2023-12-20T11:53:29.451Z,2.00
2023-12-20T11:54:29.516Z,1.50
2023-12-20T11:55:29.673Z,2.60
2023-12-20T11:56:29.525Z,1.60
2023-12-20T11:57:29.544Z,2.00
2023-12-20T11:58:29.608Z,1.60
2023-12-20T11:59:29.607Z,1.80
2023-12-20T12:00:29.719Z,1.50
2023-12-20T12:01:29.505Z,2.30
2023-12-20T12:02:29.363Z,1.70
2023-12-20T12:03:29.345Z,1.60
2023-12-20T12:04:29.453Z,1.70
2023-12-20T12:05:29.467Z,2.00
2023-12-20T12:06:29.329Z,2.10
2023-12-20T12:07:29.384Z,2.40
2023-12-20T12:08:29.293Z,2.10
2023-12-20T12:09:29.283Z,1.60
2023-12-20T12:10:29.304Z,2.50
2023-12-20T12:11:29.257Z,3.20
2023-12-20T12:12:29.245Z,1.40
2023-12-20T12:13:29.346Z,1.80
2023-12-20T12:14:29.246Z,2.40
2023-12-20T12:15:29.215Z,1.60
2023-12-20T12:16:29.461Z,1.90
2023-12-20T12:17:29.501Z,1.40
2023-12-20T12:18:29.506Z,1.30
2023-12-20T12:19:29.229Z,1.20
2023-12-20T12:20:29.255Z,1.50
2023-12-20T12:21:33.154Z,1.70
2023-12-20T12:22:29.226Z,1.40
2023-12-20T12:23:29.129Z,0.90
2023-12-20T12:24:29.115Z,1.70
2023-12-20T12:25:29.118Z,1.40
2023-12-20T12:26:29.096Z,1.40
2023-12-20T12:27:29.084Z,1.40
2023-12-20T12:28:29.280Z,0.90
2023-12-20T12:29:29.081Z,0.80
2023-12-20T12:30:35.108Z,1.10
2023-12-20T12:31:29.240Z,1.20
2023-12-20T12:32:29.355Z,1.10
2023-12-20T12:33:29.147Z,1.10
2023-12-20T12:34:29.285Z,1.30
2023-12-20T12:35:29.279Z,1.50
2023-12-20T12:36:29.379Z,1.30
2023-12-20T12:37:29.570Z,2.00
2023-12-20T12:38:29.469Z,1.80
2023-12-20T12:39:29.082Z,1.60
2023-12-20T12:40:29.151Z,1.90
2023-12-20T12:41:29.083Z,2.80
2023-12-20T12:42:29.097Z,2.60
2023-12-20T12:43:29.156Z,2.20
2023-12-20T12:44:29.089Z,2.20
2023-12-20T12:45:29.089Z,3.10
2023-12-20T12:46:29.155Z,2.50
2023-12-20T12:47:29.102Z,2.30
2023-12-20T12:48:29.225Z,2.10
2023-12-20T12:49:29.175Z,2.20
2023-12-20T12:50:29.209Z,3.50
2023-12-20T12:51:29.089Z,2.50
2023-12-20T12:52:28.966Z,2.60
2023-12-20T12:53:28.837Z,2.10
2023-12-20T12:54:28.802Z,2.00
2023-12-20T12:55:29.198Z,2.60
2023-12-20T12:56:29.214Z,2.00
2023-12-20T12:57:29.040Z,2.70
2023-12-20T12:58:29.156Z,2.80
2023-12-20T12:59:29.016Z,2.30
2023-12-20T13:00:29.038Z,2.30
2023-12-20T13:01:28.761Z,2.00
2023-12-20T13:02:28.700Z,2.40
2023-12-20T13:03:28.675Z,2.70
2023-12-20T13:04:28.774Z,2.90
2023-12-20T13:05:28.713Z,2.70
2023-12-20T13:06:28.672Z,2.70
2023-12-20T13:07:28.660Z,2.40
2023-12-20T13:08:28.661Z,2.50
2023-12-20T13:09:28.620Z,3.30
2023-12-20T13:10:28.688Z,2.40
2023-12-20T13:11:28.605Z,2.10
2023-12-20T13:12:28.619Z,3.90
2023-12-20T13:13:28.647Z,2.40
2023-12-20T13:14:28.563Z,3.60
2023-12-20T13:15:28.544Z,3.00
2023-12-20T13:16:28.616Z,2.30
2023-12-20T13:17:30.576Z,2.80
2023-12-20T13:18:28.606Z,2.50
2023-12-20T13:19:28.611Z,2.50
2023-12-20T13:20:28.515Z,2.40
2023-12-20T13:21:28.478Z,2.90